Time;durP1;ratioP1;P1;durP2;ratioP2;P2;SDS_P1;SDS_P2;PMS_P1;PMS_P2;Temp;Humidity;BMP_temperature;BMP_pressure;BME280_temperature;BME280_humidity;BME280_pressure;Samples;Min_cycle;Max_cycle;Signal;HPM_P1;HPM_P2
2020/12/17 00:00:26;;;;;;;37.90;25.70;;;9.70;99.90;;;;;;4983431;28;20723;-67
2020/12/17 00:03:10;;;;;;;37.10;25.27;;;9.60;99.90;;;;;;4996966;28;20748;-68
2020/12/17 00:05:58;;;;;;;37.23;26.80;;;9.60;99.90;;;;;;4983195;28;20606;-68
2020/12/17 00:08:45;;;;;;;36.30;25.93;;;9.70;99.90;;;;;;4970728;28;20637;-68
2020/12/17 00:11:31;;;;;;;37.83;25.23;;;9.70;99.90;;;;;;4971165;28;21291;-68
2020/12/17 00:14:17;;;;;;;34.07;25.20;;;9.60;99.90;;;;;;4964291;28;20909;-67
2020/12/17 00:17:02;;;;;;;37.93;26.13;;;9.60;99.90;;;;;;4965820;28;20832;-68
2020/12/17 00:19:46;;;;;;;39.00;25.87;;;9.60;99.90;;;;;;4984010;28;20808;-67
2020/12/17 00:22:35;;;;;;;39.03;26.87;;;9.60;99.90;;;;;;4980077;28;20641;-67
2020/12/17 00:25:20;;;;;;;37.60;25.40;;;9.60;99.90;;;;;;4981015;28;20624;-67
2020/12/17 00:28:04;;;;;;;35.50;25.53;;;9.50;99.90;;;;;;4959233;28;20683;-68
2020/12/17 00:30:49;;;;;;;38.33;26.50;;;9.50;99.90;;;;;;4980513;28;20792;-67
2020/12/17 00:33:33;;;;;;;37.90;26.53;;;9.50;99.90;;;;;;4968044;28;20689;-67
2020/12/17 00:36:19;;;;;;;36.30;25.43;;;9.40;99.90;;;;;;4979709;28;20625;-68
2020/12/17 00:39:04;;;;;;;35.57;26.03;;;9.40;99.90;;;;;;4981949;28;20597;-67
2020/12/17 00:41:48;;;;;;;38.97;27.63;;;9.30;99.90;;;;;;4957124;28;20762;-67
2020/12/17 00:44:33;;;;;;;35.97;26.07;;;9.30;99.90;;;;;;4982078;28;20625;-67
2020/12/17 00:47:21;;;;;;;36.90;26.27;;;9.30;99.90;;;;;;4982869;28;20819;-68
2020/12/17 00:50:07;;;;;;;34.77;24.80;;;9.30;99.90;;;;;;4982256;28;20716;-67
2020/12/17 00:52:51;;;;;;;35.27;24.03;;;9.30;99.90;;;;;;4966247;28;20661;-67
2020/12/17 00:55:38;;;;;;;37.10;24.87;;;9.40;99.90;;;;;;4978670;28;20788;-67
2020/12/17 00:58:23;;;;;;;32.17;23.23;;;9.30;99.90;;;;;;4959052;28;20657;-67
2020/12/17 01:01:10;;;;;;;38.37;25.67;;;9.30;99.90;;;;;;4978945;28;20729;-69
2020/12/17 01:03:55;;;;;;;35.50;24.87;;;9.30;99.90;;;;;;4971005;28;20705;-73
2020/12/17 01:06:40;;;;;;;37.70;25.83;;;9.30;99.90;;;;;;4979841;28;20604;-68
2020/12/17 01:09:25;;;;;;;34.77;26.00;;;9.20;99.90;;;;;;4982680;28;20605;-68
2020/12/17 01:12:10;;;;;;;35.17;25.90;;;9.20;99.90;;;;;;4962695;28;20770;-68
2020/12/17 01:14:54;;;;;;;35.40;26.77;;;9.20;99.90;;;;;;4968426;28;20596;-68
2020/12/17 01:17:39;;;;;;;35.13;25.10;;;9.20;99.90;;;;;;4968371;28;20610;-68
2020/12/17 01:20:24;;;;;;;36.60;24.57;;;9.10;99.90;;;;;;4983469;28;20919;-67
2020/12/17 01:23:08;;;;;;;37.30;24.97;;;9.20;99.90;;;;;;4962469;28;20645;-67
2020/12/17 01:25:52;;;;;;;33.30;23.60;;;9.10;99.90;;;;;;4988566;28;20692;-68
2020/12/17 01:28:39;;;;;;;32.80;24.23;;;9.20;99.90;;;;;;4990984;28;20629;-67
2020/12/17 01:31:24;;;;;;;33.47;23.33;;;9.20;99.90;;;;;;4962839;28;20657;-68
2020/12/17 01:34:08;;;;;;;37.27;25.20;;;9.10;99.90;;;;;;4969487;28;20569;-67
2020/12/17 01:36:54;;;;;;;30.97;22.67;;;9.20;99.90;;;;;;4977188;28;20684;-68
2020/12/17 01:39:38;;;;;;;33.83;23.13;;;9.10;99.90;;;;;;4978490;28;20672;-67
2020/12/17 01:42:23;;;;;;;36.43;24.53;;;9.10;99.90;;;;;;4974288;28;21214;-67
2020/12/17 01:45:07;;;;;;;32.90;23.40;;;9.10;99.90;;;;;;4958757;28;20716;-67
2020/12/17 01:47:53;;;;;;;40.00;25.23;;;9.10;99.90;;;;;;4980581;28;21090;-68
2020/12/17 01:50:38;;;;;;;33.10;22.73;;;9.10;99.90;;;;;;4966642;28;20661;-67
2020/12/17 01:53:23;;;;;;;33.67;23.67;;;9.00;99.90;;;;;;4979990;28;20608;-68
2020/12/17 01:56:21;;;;;;;32.53;22.77;;;9.10;99.90;;;;;;4966901;28;21012;-68
2020/12/17 01:59:11;;;;;;;35.27;24.30;;;9.00;99.90;;;;;;4967306;28;20570;-67
2020/12/17 02:01:56;;;;;;;34.87;21.97;;;9.00;99.90;;;;;;4975013;28;20649;-68
2020/12/17 02:04:41;;;;;;;34.30;22.00;;;8.90;99.90;;;;;;4979537;28;20605;-67
2020/12/17 02:07:27;;;;;;;33.10;22.73;;;8.90;99.90;;;;;;4968567;28;20841;-68
2020/12/17 02:10:16;;;;;;;30.83;23.60;;;9.00;99.90;;;;;;4983889;28;20966;-67
2020/12/17 02:13:01;;;;;;;32.60;22.27;;;8.90;99.90;;;;;;4965247;28;20660;-67
2020/12/17 02:15:45;;;;;;;30.20;21.57;;;8.90;99.90;;;;;;4969894;28;20565;-68
2020/12/17 02:18:30;;;;;;;34.93;22.37;;;8.90;99.90;;;;;;4983221;28;20613;-67
2020/12/17 02:21:15;;;;;;;31.17;22.27;;;8.80;99.90;;;;;;4957959;28;21032;-67
2020/12/17 02:24:01;;;;;;;32.60;21.73;;;8.80;99.90;;;;;;4983553;28;20971;-67
2020/12/17 02:26:45;;;;;;;28.27;21.27;;;8.80;99.90;;;;;;4971760;28;21040;-67
2020/12/17 02:29:30;;;;;;;36.63;21.57;;;8.90;99.90;;;;;;4968361;28;20624;-67
2020/12/17 02:32:15;;;;;;;31.17;23.00;;;8.90;99.90;;;;;;4965731;28;20645;-68
2020/12/17 02:34:59;;;;;;;30.33;21.10;;;8.90;99.90;;;;;;4961092;28;20626;-67
2020/12/17 02:37:44;;;;;;;31.30;22.07;;;8.90;99.90;;;;;;4965244;28;20632;-68
2020/12/17 02:40:28;;;;;;;29.60;22.17;;;8.90;99.90;;;;;;4971106;28;20736;-68
2020/12/17 02:43:13;;;;;;;30.17;20.80;;;8.80;99.90;;;;;;4969854;28;20712;-67
2020/12/17 02:45:58;;;;;;;28.10;20.37;;;8.90;99.90;;;;;;4982481;28;20729;-67
2020/12/17 02:48:42;;;;;;;27.20;19.83;;;9.00;99.90;;;;;;4969419;28;20593;-68
2020/12/17 02:51:27;;;;;;;28.67;21.20;;;9.00;99.90;;;;;;4965372;28;20656;-65
2020/12/17 02:54:11;;;;;;;28.03;19.97;;;9.00;99.90;;;;;;4973829;28;20579;-65
2020/12/17 02:56:56;;;;;;;30.20;21.40;;;9.00;99.90;;;;;;4978603;28;20668;-65
2020/12/17 02:59:43;;;;;;;27.57;20.77;;;9.00;99.90;;;;;;4979258;28;20762;-65
2020/12/17 03:02:27;;;;;;;27.23;19.90;;;9.00;99.90;;;;;;4981081;28;20673;-64
2020/12/17 03:05:12;;;;;;;28.10;20.40;;;9.00;99.90;;;;;;4985251;28;20682;-64
2020/12/17 03:07:57;;;;;;;29.30;19.97;;;8.90;99.90;;;;;;4994312;28;21163;-68
2020/12/17 03:10:42;;;;;;;29.70;21.10;;;8.90;99.90;;;;;;4965943;28;20668;-64
2020/12/17 03:13:26;;;;;;;25.80;20.30;;;8.90;99.90;;;;;;4982874;28;21081;-65
2020/12/17 03:16:11;;;;;;;27.07;19.80;;;8.90;99.90;;;;;;4969600;28;20837;-65
2020/12/17 03:18:56;;;;;;;28.00;20.50;;;8.90;99.90;;;;;;4966951;28;21191;-65
2020/12/17 03:21:40;;;;;;;25.30;18.87;;;8.80;99.90;;;;;;4965599;28;20720;-65
2020/12/17 03:24:27;;;;;;;31.70;21.77;;;8.90;99.90;;;;;;4963175;28;20594;-65
2020/12/17 03:27:15;;;;;;;30.17;20.10;;;8.80;99.90;;;;;;4949692;28;20617;-65
2020/12/17 03:30:00;;;;;;;27.37;21.30;;;8.80;99.90;;;;;;4948418;28;20673;-65
2020/12/17 03:32:45;;;;;;;27.40;20.10;;;8.80;99.90;;;;;;4979191;28;20653;-64
2020/12/17 03:35:30;;;;;;;28.07;19.17;;;8.90;99.90;;;;;;4966989;28;21153;-65
2020/12/17 03:38:14;;;;;;;26.90;19.70;;;8.90;99.90;;;;;;4984304;28;20653;-65
2020/12/17 03:41:03;;;;;;;28.93;19.23;;;8.90;99.90;;;;;;4964583;28;20660;-65
2020/12/17 03:43:48;;;;;;;23.67;18.57;;;8.90;99.90;;;;;;4979131;28;20993;-65
2020/12/17 03:46:32;;;;;;;28.90;21.40;;;8.90;99.90;;;;;;4970360;28;20621;-65
2020/12/17 03:49:17;;;;;;;26.50;20.27;;;8.90;99.90;;;;;;4970429;28;20620;-65
2020/12/17 03:52:01;;;;;;;25.57;18.40;;;8.80;99.90;;;;;;4954696;28;20777;-65
2020/12/17 03:54:46;;;;;;;26.77;20.03;;;8.80;99.90;;;;;;4964405;28;21171;-65
2020/12/17 03:57:30;;;;;;;27.40;19.87;;;8.80;99.90;;;;;;4961531;28;20665;-65
2020/12/17 04:00:15;;;;;;;25.63;19.67;;;8.80;99.90;;;;;;4964008;28;20656;-64
2020/12/17 04:03:01;;;;;;;27.37;18.43;;;8.80;99.90;;;;;;4968788;28;20644;-65
2020/12/17 04:05:46;;;;;;;26.47;19.87;;;8.80;99.90;;;;;;4969420;28;20593;-65
2020/12/17 04:08:31;;;;;;;25.43;18.87;;;8.80;99.90;;;;;;4967783;28;21187;-65
2020/12/17 04:11:15;;;;;;;25.47;19.03;;;8.90;99.90;;;;;;4967061;28;20656;-65
2020/12/17 04:14:00;;;;;;;26.80;18.73;;;8.90;99.90;;;;;;4963519;28;20644;-65
2020/12/17 04:16:44;;;;;;;27.43;19.83;;;8.90;99.90;;;;;;4970886;28;21207;-65
2020/12/17 04:19:29;;;;;;;24.93;18.73;;;8.80;99.90;;;;;;4969312;28;20926;-65
2020/12/17 04:22:16;;;;;;;26.57;19.27;;;8.80;99.90;;;;;;4963573;28;20654;-65
2020/12/17 04:25:00;;;;;;;28.07;20.00;;;8.80;99.90;;;;;;4963687;28;20660;-65
2020/12/17 04:27:45;;;;;;;26.53;18.77;;;8.80;99.90;;;;;;4979432;28;20601;-67
2020/12/17 04:30:29;;;;;;;26.63;18.97;;;8.80;99.90;;;;;;4962319;28;20817;-65
2020/12/17 04:33:14;;;;;;;27.30;20.83;;;8.80;99.90;;;;;;4978171;28;20743;-64
2020/12/17 04:35:58;;;;;;;25.20;18.77;;;8.80;99.90;;;;;;4981588;28;20716;-65
2020/12/17 04:38:51;;;;;;;26.20;19.00;;;8.70;99.90;;;;;;4968009;28;22159;-64
2020/12/17 04:41:37;;;;;;;25.73;20.37;;;8.70;99.90;;;;;;4963783;28;20672;-65
2020/12/17 04:44:22;;;;;;;26.07;19.57;;;8.70;99.90;;;;;;4962713;28;20646;-65
2020/12/17 04:47:11;;;;;;;31.97;21.50;;;8.70;99.90;;;;;;4958866;28;21233;-65
2020/12/17 04:50:06;;;;;;;27.60;20.50;;;8.80;99.90;;;;;;4976352;28;20657;-65
2020/12/17 04:52:53;;;;;;;30.73;19.60;;;8.80;99.90;;;;;;4978105;28;20654;-65
2020/12/17 04:55:41;;;;;;;29.90;20.43;;;8.80;99.90;;;;;;4981559;28;20621;-65
2020/12/17 04:58:30;;;;;;;27.40;19.97;;;8.80;99.90;;;;;;4977006;28;20620;-65
2020/12/17 05:01:18;;;;;;;27.03;19.43;;;8.70;99.90;;;;;;4964741;28;20689;-66
2020/12/17 05:04:03;;;;;;;25.90;19.10;;;8.70;99.90;;;;;;4964452;28;21297;-67
2020/12/17 05:06:49;;;;;;;26.70;20.40;;;8.70;99.90;;;;;;4961947;28;20728;-68
2020/12/17 05:09:37;;;;;;;26.80;19.17;;;8.70;99.90;;;;;;4965867;28;20600;-65
2020/12/17 05:12:22;;;;;;;27.43;20.23;;;8.70;99.90;;;;;;4976894;28;20653;-65
2020/12/17 05:15:06;;;;;;;28.97;19.70;;;8.80;99.90;;;;;;4982925;28;20678;-65
2020/12/17 05:17:52;;;;;;;28.47;19.93;;;8.70;99.90;;;;;;4963417;28;20861;-65
2020/12/17 05:20:39;;;;;;;28.40;20.90;;;8.70;99.90;;;;;;4963672;28;20661;-65
2020/12/17 05:23:24;;;;;;;30.43;20.17;;;8.70;99.90;;;;;;4963436;28;20641;-65
2020/12/17 05:26:09;;;;;;;28.40;20.17;;;8.70;99.90;;;;;;4966569;28;20745;-65
2020/12/17 05:28:53;;;;;;;27.23;19.53;;;8.70;99.90;;;;;;4968532;28;20624;-65
2020/12/17 05:31:38;;;;;;;28.40;19.83;;;8.70;99.90;;;;;;4955936;28;20805;-65
2020/12/17 05:34:22;;;;;;;28.30;19.67;;;8.70;99.90;;;;;;4956752;28;20615;-65
2020/12/17 05:37:07;;;;;;;26.43;18.40;;;8.60;99.90;;;;;;4949567;28;20598;-64
2020/12/17 05:39:54;;;;;;;26.13;19.27;;;8.70;99.90;;;;;;4934538;28;20820;-65
2020/12/17 05:42:38;;;;;;;24.53;19.10;;;8.70;99.90;;;;;;4969633;28;21223;-65
2020/12/17 05:45:25;;;;;;;24.63;18.33;;;8.70;99.90;;;;;;4964386;28;20647;-66
2020/12/17 05:48:16;;;;;;;25.57;18.37;;;8.80;99.90;;;;;;4975877;28;20604;-66
2020/12/17 05:51:02;;;;;;;25.77;19.63;;;8.80;99.90;;;;;;4971590;28;23258;-65
2020/12/17 05:53:49;;;;;;;26.80;18.47;;;8.70;99.90;;;;;;4975773;28;20701;-66
2020/12/17 05:56:34;;;;;;;26.60;18.60;;;8.80;99.90;;;;;;4957586;28;20589;-66
2020/12/17 05:59:22;;;;;;;23.90;18.90;;;8.80;99.90;;;;;;4962036;28;20593;-65
2020/12/17 06:02:24;;;;;;;27.37;19.87;;;8.80;99.90;;;;;;4966770;28;20649;-65
2020/12/17 06:05:15;;;;;;;27.20;18.93;;;8.80;99.90;;;;;;4991992;28;20609;-64
2020/12/17 06:08:00;;;;;;;24.17;18.03;;;8.80;99.90;;;;;;4980357;28;20677;-66
2020/12/17 06:10:54;;;;;;;24.70;17.87;;;8.70;99.90;;;;;;4975686;28;20710;-66
2020/12/17 06:13:41;;;;;;;25.83;18.57;;;8.70;99.90;;;;;;4980703;28;20673;-66
2020/12/17 06:16:27;;;;;;;22.20;16.70;;;8.70;99.90;;;;;;4974644;28;20584;-66
2020/12/17 06:19:12;;;;;;;25.93;19.60;;;8.70;99.90;;;;;;4963238;28;20938;-66
2020/12/17 06:21:57;;;;;;;24.10;17.40;;;8.70;99.90;;;;;;4958799;28;20642;-65
2020/12/17 06:24:43;;;;;;;27.57;19.60;;;8.80;99.90;;;;;;4957745;28;20606;-66
2020/12/17 06:27:43;;;;;;;23.80;17.17;;;8.80;99.90;;;;;;4962038;28;21175;-66
2020/12/17 06:30:30;;;;;;;24.43;19.03;;;8.80;99.90;;;;;;4946822;28;20674;-64
2020/12/17 06:33:14;;;;;;;25.57;18.23;;;8.70;99.90;;;;;;4976629;28;20685;-66
2020/12/17 06:36:01;;;;;;;24.37;18.10;;;8.70;99.90;;;;;;4979287;28;20589;-65
2020/12/17 06:38:47;;;;;;;25.77;19.20;;;8.70;99.90;;;;;;4964852;28;20573;-66
2020/12/17 06:41:32;;;;;;;23.43;18.47;;;8.60;99.90;;;;;;4965454;28;20644;-65
2020/12/17 06:44:32;;;;;;;27.07;19.00;;;8.60;99.90;;;;;;4967100;28;20726;-65
2020/12/17 06:47:27;;;;;;;24.37;17.20;;;8.60;99.90;;;;;;4978614;28;20625;-65
2020/12/17 06:50:22;;;;;;;23.13;17.10;;;8.60;99.90;;;;;;4974478;28;20993;-65
2020/12/17 06:53:12;;;;;;;22.13;16.60;;;8.60;99.90;;;;;;4979112;28;20676;-66
2020/12/17 06:56:00;;;;;;;22.83;17.00;;;8.70;99.90;;;;;;4980812;28;20967;-65
2020/12/17 06:58:48;;;;;;;22.97;17.43;;;8.60;99.90;;;;;;4969476;28;20668;-66
2020/12/17 07:01:37;;;;;;;22.03;17.30;;;8.70;99.90;;;;;;4947135;28;20760;-66
2020/12/17 07:04:41;;;;;;;24.87;19.30;;;8.70;99.90;;;;;;4934194;28;20616;-65
2020/12/17 07:07:26;;;;;;;26.42;22.00;;;8.70;99.90;;;;;;4978446;28;20805;-66
2020/12/17 07:10:29;;;;;;;26.00;19.70;;;8.80;99.90;;;;;;4989548;28;20955;-66
2020/12/17 07:13:42;;;;;;;22.33;16.93;;;8.80;99.90;;;;;;4972371;28;20732;-66
2020/12/17 07:16:27;;;;;;;25.00;17.97;;;8.80;99.90;;;;;;4969791;28;20680;-66
2020/12/17 07:19:22;;;;;;;23.23;17.20;;;8.80;99.90;;;;;;4970926;28;20656;-65
2020/12/17 07:22:10;;;;;;;22.73;17.90;;;8.80;99.90;;;;;;4966774;28;21223;-66
2020/12/17 07:24:57;;;;;;;25.30;17.63;;;8.80;99.90;;;;;;4974490;28;20725;-65
2020/12/17 07:27:49;;;;;;;23.33;17.20;;;8.80;99.90;;;;;;4981146;28;20596;-66
2020/12/17 07:30:33;;;;;;;22.67;17.03;;;8.80;99.90;;;;;;4962556;28;20777;-64
2020/12/17 07:33:41;;;;;;;22.60;17.33;;;8.90;99.90;;;;;;4980158;28;21183;-66
2020/12/17 07:36:45;;;;;;;20.33;15.87;;;8.90;99.90;;;;;;4966834;28;20593;-66
2020/12/17 07:39:33;;;;;;;18.80;14.97;;;8.80;99.90;;;;;;4979866;28;20632;-66
2020/12/17 07:42:21;;;;;;;20.50;16.53;;;8.90;99.90;;;;;;4962839;28;20640;-65
2020/12/17 07:45:08;;;;;;;21.00;16.80;;;8.90;99.90;;;;;;4967849;28;20597;-66
2020/12/17 07:47:53;;;;;;;22.70;15.90;;;8.90;99.90;;;;;;4965048;28;20609;-65
2020/12/17 07:50:40;;;;;;;23.10;17.80;;;9.00;99.90;;;;;;4979763;28;20676;-66
2020/12/17 07:53:26;;;;;;;21.33;17.13;;;8.90;99.90;;;;;;4962833;28;20628;-66
2020/12/17 07:56:10;;;;;;;22.23;16.90;;;9.00;99.90;;;;;;4957252;28;20597;-65
2020/12/17 07:58:55;;;;;;;18.67;15.57;;;9.00;99.90;;;;;;4965727;28;20716;-66
2020/12/17 08:01:40;;;;;;;19.20;15.37;;;8.90;99.90;;;;;;4976792;28;20768;-65
2020/12/17 08:04:24;;;;;;;22.70;16.80;;;8.90;99.90;;;;;;4958188;28;20757;-66
2020/12/17 08:07:09;;;;;;;21.93;16.47;;;8.90;99.90;;;;;;4976102;28;20593;-65
2020/12/17 08:10:01;;;;;;;21.33;16.53;;;8.90;99.90;;;;;;4966261;28;20644;-64
2020/12/17 08:12:45;;;;;;;20.73;16.40;;;8.90;99.90;;;;;;4958967;28;20673;-65
2020/12/17 08:15:30;;;;;;;20.37;16.10;;;8.90;99.90;;;;;;4943752;28;20680;-66
2020/12/17 08:18:22;;;;;;;19.60;15.50;;;9.00;99.90;;;;;;4946558;28;20617;-65
2020/12/17 08:21:11;;;;;;;19.33;15.50;;;9.00;99.90;;;;;;4948769;28;20766;-66
2020/12/17 08:23:56;;;;;;;21.00;15.90;;;9.00;99.90;;;;;;4961626;28;20586;-65
2020/12/17 08:26:40;;;;;;;20.77;15.27;;;9.10;99.90;;;;;;4945870;28;20625;-65
2020/12/17 08:29:25;;;;;;;23.53;16.10;;;9.10;99.90;;;;;;4957345;28;20630;-65
2020/12/17 08:32:09;;;;;;;17.87;15.30;;;9.10;99.90;;;;;;4948243;28;20662;-65
2020/12/17 08:34:55;;;;;;;21.00;16.00;;;9.10;99.90;;;;;;4953983;28;20594;-65
2020/12/17 08:37:43;;;;;;;21.07;15.30;;;9.10;99.90;;;;;;4963297;28;20601;-65
2020/12/17 08:40:28;;;;;;;18.70;14.73;;;9.10;99.90;;;;;;4949846;28;21180;-65
2020/12/17 08:43:15;;;;;;;19.47;15.50;;;9.20;99.90;;;;;;4980513;28;20653;-64
2020/12/17 08:46:02;;;;;;;19.00;15.30;;;9.20;99.90;;;;;;4981411;28;20600;-65
2020/12/17 08:48:49;;;;;;;21.90;16.50;;;9.20;99.90;;;;;;4963909;28;20597;-65
2020/12/17 08:51:36;;;;;;;19.63;15.90;;;9.30;99.90;;;;;;4959591;22;20659;-63
2020/12/17 08:54:31;;;;;;;17.40;15.07;;;9.30;99.90;;;;;;4903825;28;20640;-63
2020/12/17 08:57:16;;;;;;;20.73;16.07;;;9.30;99.90;;;;;;4908752;28;20676;-64
2020/12/17 09:00:02;;;;;;;20.13;15.10;;;9.30;99.90;;;;;;4921895;28;21210;-64
2020/12/17 09:02:57;;;;;;;18.73;15.03;;;9.30;99.90;;;;;;4919985;28;20708;-64
2020/12/17 09:05:41;;;;;;;18.70;15.23;;;9.40;99.90;;;;;;4906645;28;20643;-64
2020/12/17 09:08:26;;;;;;;19.10;15.10;;;9.30;99.90;;;;;;4901109;28;20683;-64
2020/12/17 09:11:30;;;;;;;17.83;15.00;;;9.40;99.90;;;;;;4914435;28;20786;-64
2020/12/17 09:14:21;;;;;;;16.90;14.30;;;9.40;99.90;;;;;;4942443;28;20664;-64
2020/12/17 09:17:13;;;;;;;17.97;14.77;;;9.50;99.90;;;;;;4921824;28;21160;-64
2020/12/17 09:19:58;;;;;;;17.57;13.57;;;9.50;99.90;;;;;;4925328;28;21069;-64
2020/12/17 09:22:43;;;;;;;16.10;13.50;;;9.60;99.90;;;;;;4916696;28;21076;-64
2020/12/17 09:25:28;;;;;;;16.40;12.90;;;9.60;99.90;;;;;;4918814;28;20598;-64
2020/12/17 09:28:20;;;;;;;15.87;13.53;;;9.60;99.90;;;;;;4914251;28;20659;-64
2020/12/17 09:31:19;;;;;;;17.00;13.53;;;9.50;99.90;;;;;;4906389;28;21294;-64
2020/12/17 09:34:10;;;;;;;15.10;13.30;;;9.60;99.90;;;;;;4948755;28;20805;-64
2020/12/17 09:36:58;;;;;;;15.93;13.43;;;9.70;99.90;;;;;;4933885;28;21127;-64
2020/12/17 09:39:46;;;;;;;17.23;14.73;;;9.70;99.90;;;;;;4921088;28;20803;-64
2020/12/17 09:42:31;;;;;;;17.33;14.43;;;9.70;99.90;;;;;;4896890;28;20717;-64
2020/12/17 09:45:17;;;;;;;16.07;12.73;;;9.80;99.90;;;;;;4953049;28;20623;-64
2020/12/17 09:48:30;;;;;;;16.10;14.00;;;9.80;99.90;;;;;;4916224;28;20624;-64
2020/12/17 09:51:20;;;;;;;15.33;13.40;;;9.70;99.90;;;;;;4935435;28;20780;-64
2020/12/17 09:54:04;;;;;;;16.93;13.37;;;9.70;99.90;;;;;;4909461;28;20668;-64
2020/12/17 09:57:09;;;;;;;16.30;14.00;;;9.70;99.90;;;;;;4917051;28;20992;-65
2020/12/17 09:59:54;;;;;;;15.90;13.13;;;9.70;99.90;;;;;;4928764;28;21194;-65
2020/12/17 10:02:40;;;;;;;15.30;13.27;;;9.80;99.90;;;;;;4905565;28;20647;-65
2020/12/17 10:05:27;;;;;;;17.23;13.07;;;9.90;99.90;;;;;;4921380;28;20621;-65
2020/12/17 10:08:12;;;;;;;15.07;13.40;;;9.80;99.90;;;;;;4924434;28;21154;-65
2020/12/17 10:10:56;;;;;;;20.03;14.60;;;9.80;99.90;;;;;;4920745;28;20746;-66
2020/12/17 10:13:41;;;;;;;18.43;14.07;;;9.90;99.90;;;;;;4927052;28;20648;-65
2020/12/17 10:16:25;;;;;;;17.20;14.47;;;9.90;99.90;;;;;;4926385;28;21062;-65
2020/12/17 10:19:11;;;;;;;19.33;13.33;;;10.00;99.90;;;;;;4915918;28;20607;-65
2020/12/17 10:21:57;;;;;;;15.07;13.47;;;9.90;99.90;;;;;;4898149;28;20636;-64
2020/12/17 10:24:42;;;;;;;16.23;14.30;;;10.00;99.90;;;;;;4905460;28;20625;-65
2020/12/17 10:27:28;;;;;;;18.40;14.37;;;10.00;99.90;;;;;;4906852;28;20785;-65
2020/12/17 10:30:13;;;;;;;16.90;14.40;;;10.00;99.90;;;;;;4915438;28;20644;-64
2020/12/17 10:32:58;;;;;;;16.47;14.00;;;10.10;99.90;;;;;;4912221;28;21289;-65
2020/12/17 10:35:43;;;;;;;23.20;13.73;;;10.10;99.90;;;;;;4917011;28;21038;-65
2020/12/17 10:38:27;;;;;;;14.50;13.00;;;10.00;99.90;;;;;;4903039;28;21083;-65
2020/12/17 10:41:11;;;;;;;17.97;13.67;;;10.10;99.90;;;;;;4902566;28;20730;-66
2020/12/17 10:43:56;;;;;;;16.07;13.70;;;10.20;99.90;;;;;;4931215;28;20599;-65
2020/12/17 10:46:41;;;;;;;17.60;13.47;;;10.20;99.90;;;;;;4931975;28;20612;-65
2020/12/17 10:49:25;;;;;;;15.47;13.87;;;10.30;99.90;;;;;;4924709;28;20600;-65
2020/12/17 10:52:10;;;;;;;18.77;14.70;;;10.30;99.90;;;;;;4910564;28;20998;-64
2020/12/17 10:54:55;;;;;;;16.63;13.70;;;10.30;99.90;;;;;;4912016;28;20695;-67
2020/12/17 10:57:39;;;;;;;15.53;13.47;;;10.30;99.90;;;;;;4917711;28;20624;-65
2020/12/17 11:00:24;;;;;;;16.77;14.17;;;10.40;99.90;;;;;;4909177;28;20660;-65
2020/12/17 11:03:09;;;;;;;16.40;14.07;;;10.40;99.90;;;;;;4934781;28;20651;-64
2020/12/17 11:05:56;;;;;;;15.93;14.33;;;10.40;99.90;;;;;;4946494;28;20639;-64
2020/12/17 11:08:40;;;;;;;18.57;14.40;;;10.40;99.90;;;;;;4937577;28;20609;-64
2020/12/17 11:11:24;;;;;;;16.70;14.63;;;10.30;99.90;;;;;;4919672;28;20659;-64
2020/12/17 11:14:09;;;;;;;15.47;13.07;;;10.30;99.90;;;;;;4928743;28;21225;-65
2020/12/17 11:16:53;;;;;;;16.30;13.83;;;10.40;99.90;;;;;;4940972;28;20628;-65
2020/12/17 11:19:38;;;;;;;15.33;13.73;;;10.50;99.90;;;;;;4926959;28;20611;-64
2020/12/17 11:22:22;;;;;;;17.60;14.83;;;10.50;99.90;;;;;;4917869;28;21115;-65
2020/12/17 11:25:07;;;;;;;18.03;14.80;;;10.40;99.90;;;;;;4908712;28;20727;-64
2020/12/17 11:27:51;;;;;;;16.60;14.27;;;10.40;99.90;;;;;;4914763;28;20624;-64
2020/12/17 11:30:36;;;;;;;16.17;14.33;;;10.50;99.90;;;;;;4922869;28;20647;-65
2020/12/17 11:33:20;;;;;;;16.27;14.67;;;10.50;99.90;;;;;;4908167;28;20983;-64
2020/12/17 11:36:05;;;;;;;16.60;14.33;;;10.60;99.90;;;;;;4909299;28;21241;-65
2020/12/17 11:38:50;;;;;;;15.90;14.30;;;10.60;99.90;;;;;;4941076;28;20595;-65
2020/12/17 11:41:34;;;;;;;16.20;14.30;;;10.60;99.90;;;;;;4907237;28;20670;-65
2020/12/17 11:44:19;;;;;;;16.03;13.97;;;10.70;99.90;;;;;;4914098;28;20725;-64
2020/12/17 11:47:04;;;;;;;16.53;14.30;;;10.70;99.90;;;;;;4921467;28;20627;-65
2020/12/17 11:49:48;;;;;;;16.37;14.67;;;10.70;99.90;;;;;;4909189;28;20591;-65
2020/12/17 11:52:36;;;;;;;15.10;13.13;;;10.60;99.90;;;;;;4915312;28;20646;-65
2020/12/17 11:55:21;;;;;;;15.73;14.03;;;10.60;99.90;;;;;;4909535;28;20604;-64
2020/12/17 11:58:06;;;;;;;15.13;13.20;;;10.70;99.90;;;;;;4903895;28;20687;-65
2020/12/17 12:00:50;;;;;;;17.43;15.20;;;10.70;99.90;;;;;;4915510;28;23063;-65
2020/12/17 12:03:35;;;;;;;15.50;13.90;;;10.70;99.90;;;;;;4900462;28;20612;-66
2020/12/17 12:06:20;;;;;;;16.67;14.50;;;10.60;99.90;;;;;;4906919;28;21331;-65
2020/12/17 12:09:07;;;;;;;15.57;13.97;;;10.60;99.90;;;;;;4901100;28;20618;-65
2020/12/17 12:11:57;;;;;;;17.03;14.57;;;10.70;99.90;;;;;;4897749;28;20834;-65
2020/12/17 12:14:42;;;;;;;14.80;13.30;;;10.70;99.90;;;;;;4914753;28;20632;-65
2020/12/17 12:17:27;;;;;;;16.13;14.43;;;10.70;99.90;;;;;;4908066;28;21068;-65
2020/12/17 12:20:12;;;;;;;15.97;14.13;;;10.70;99.90;;;;;;4915084;28;21096;-66
2020/12/17 12:22:58;;;;;;;16.83;15.10;;;10.80;99.90;;;;;;4895101;28;20640;-65
2020/12/17 12:25:44;;;;;;;16.83;14.43;;;10.80;99.90;;;;;;4912875;28;20606;-65
2020/12/17 12:28:28;;;;;;;15.37;13.80;;;10.70;99.90;;;;;;4891537;28;20744;-65
2020/12/17 12:31:15;;;;;;;15.93;14.30;;;10.70;99.90;;;;;;4896172;28;20672;-65
2020/12/17 12:34:03;;;;;;;15.60;14.03;;;10.70;99.90;;;;;;4896184;28;20734;-65
2020/12/17 12:36:53;;;;;;;15.27;13.67;;;10.80;99.90;;;;;;4899209;28;20962;-65
2020/12/17 12:39:38;;;;;;;16.03;14.40;;;10.80;99.90;;;;;;4899010;28;20621;-66
2020/12/17 12:42:22;;;;;;;13.03;11.73;;;10.70;99.90;;;;;;4889268;28;21017;-65
2020/12/17 12:45:06;;;;;;;13.03;11.83;;;10.80;99.90;;;;;;4915042;28;20792;-65
2020/12/17 12:47:51;;;;;;;12.43;11.13;;;10.90;99.90;;;;;;4908319;28;20601;-66
2020/12/17 12:50:35;;;;;;;11.13;10.10;;;10.90;99.90;;;;;;4908011;28;20811;-65
2020/12/17 12:53:20;;;;;;;11.43;10.27;;;11.00;99.90;;;;;;4906920;28;20639;-66
2020/12/17 12:56:05;;;;;;;9.30;8.27;;;11.10;99.90;;;;;;4908753;28;20612;-65
2020/12/17 12:58:50;;;;;;;8.40;7.60;;;11.20;99.90;;;;;;4909498;28;20593;-65
2020/12/17 13:01:38;;;;;;;7.23;6.57;;;11.20;99.90;;;;;;4909943;28;20654;-65
2020/12/17 13:04:23;;;;;;;7.00;6.30;;;11.20;99.90;;;;;;4900921;28;20633;-65
2020/12/17 13:07:07;;;;;;;6.83;5.00;;;11.20;99.90;;;;;;4894147;28;21348;-65
2020/12/17 13:09:52;;;;;;;5.90;5.40;;;11.30;99.90;;;;;;4905415;28;20600;-66
2020/12/17 13:12:36;;;;;;;6.23;4.47;;;11.30;99.90;;;;;;4893543;28;20807;-66
2020/12/17 13:15:21;;;;;;;4.33;3.93;;;11.40;99.90;;;;;;4911303;28;20639;-66
2020/12/17 13:18:06;;;;;;;4.47;4.17;;;11.30;99.90;;;;;;4899354;28;20620;-66
2020/12/17 13:20:51;;;;;;;4.77;4.37;;;11.40;99.90;;;;;;4900555;28;20854;-66
2020/12/17 13:23:35;;;;;;;6.57;4.40;;;11.30;99.90;;;;;;4912147;28;20612;-65
2020/12/17 13:26:21;;;;;;;4.67;4.30;;;11.30;99.90;;;;;;4910262;28;20961;-65
2020/12/17 13:29:08;;;;;;;4.73;4.33;;;11.30;99.90;;;;;;4898898;28;20624;-65
2020/12/17 13:31:53;;;;;;;5.27;4.83;;;11.30;99.90;;;;;;4888393;28;20673;-70
2020/12/17 13:34:38;;;;;;;6.07;4.70;;;11.20;99.90;;;;;;4877433;28;21152;-70
2020/12/17 13:37:22;;;;;;;4.87;4.37;;;11.30;99.90;;;;;;4885041;28;21194;-68
2020/12/17 13:40:07;;;;;;;4.10;3.60;;;11.30;99.90;;;;;;4884089;28;20674;-68
2020/12/17 13:42:52;;;;;;;3.70;3.40;;;11.30;99.90;;;;;;4898086;28;20636;-68
2020/12/17 13:45:36;;;;;;;3.57;3.13;;;11.30;99.90;;;;;;4903711;28;20605;-69
2020/12/17 13:48:21;;;;;;;4.10;3.70;;;11.40;99.90;;;;;;4914284;28;21187;-67
2020/12/17 13:51:05;;;;;;;4.27;3.90;;;11.30;99.90;;;;;;4906548;28;20903;-66
2020/12/17 13:53:50;;;;;;;3.40;3.20;;;11.30;99.90;;;;;;4880871;28;20706;-66
2020/12/17 13:56:37;;;;;;;4.00;3.70;;;11.40;99.90;;;;;;4881259;28;20929;-65
2020/12/17 13:59:22;;;;;;;3.70;3.33;;;11.30;99.90;;;;;;4884529;28;20597;-65
2020/12/17 14:02:06;;;;;;;2.70;2.50;;;11.30;99.90;;;;;;4911830;28;21102;-69
2020/12/17 14:04:51;;;;;;;3.40;3.10;;;11.20;99.90;;;;;;4898232;28;20639;-68
2020/12/17 14:07:36;;;;;;;3.73;3.33;;;11.30;99.90;;;;;;4915933;28;20639;-67
2020/12/17 14:10:20;;;;;;;3.40;3.20;;;11.30;99.90;;;;;;4903924;28;20648;-69
2020/12/17 14:13:05;;;;;;;4.00;3.60;;;11.20;99.90;;;;;;4898043;28;20756;-71